sensor_id;sensor_type;location;lat;lon;timestamp;pressure;altitude;pressure_sealevel;temperature;humidity
6464;BME280;3265;42.694;23.282;2023-06-10T00:00:08;71348.47;;;-143.21;78.46
6464;BME280;3265;42.694;23.282;2023-06-10T00:02:38;71354.41;;;-143.21;78.67
6464;BME280;3265;42.694;23.282;2023-06-10T00:05:05;71350.44;;;-143.21;78.81
6464;BME280;3265;42.694;23.282;2023-06-10T00:07:34;71354.41;;;-143.21;78.66
6464;BME280;3265;42.694;23.282;2023-06-10T00:10:04;71356.38;;;-143.21;78.55
6464;BME280;3265;42.694;23.282;2023-06-10T00:12:31;71360.34;;;-143.21;78.46
6464;BME280;3265;42.694;23.282;2023-06-10T00:15:04;71362.34;;;-143.21;78.64
6464;BME280;3265;42.694;23.282;2023-06-10T00:17:31;71370.28;;;-143.21;79.06
6464;BME280;3265;42.694;23.282;2023-06-10T00:19:58;71366.31;;;-143.21;78.96
6464;BME280;3265;42.694;23.282;2023-06-10T00:22:25;71370.28;;;-143.21;79.08
6464;BME280;3265;42.694;23.282;2023-06-10T00:24:56;71372.25;;;-143.21;79.21
6464;BME280;3265;42.694;23.282;2023-06-10T00:27:23;71374.22;;;-143.21;79.28
6464;BME280;3265;42.694;23.282;2023-06-10T00:29:50;71380.19;;;-143.21;79.45
6464;BME280;3265;42.694;23.282;2023-06-10T00:34:59;71390.09;;;-143.21;79.99
6464;BME280;3265;42.694;23.282;2023-06-10T00:37:26;71394.06;;;-143.21;80.07
6464;BME280;3265;42.694;23.282;2023-06-10T00:39:55;71403.97;;;-143.21;80.47
6464;BME280;3265;42.694;23.282;2023-06-10T00:42:22;71415.88;;;-143.21;81.21
6464;BME280;3265;42.694;23.282;2023-06-10T00:44:50;71415.88;;;-143.21;81.67
6464;BME280;3265;42.694;23.282;2023-06-10T00:47:17;71415.88;;;-143.21;82.10
6464;BME280;3265;42.694;23.282;2023-06-10T00:49:44;71427.75;;;-143.21;82.18
6464;BME280;3265;42.694;23.282;2023-06-10T00:52:12;71427.75;;;-143.21;82.65
6464;BME280;3265;42.694;23.282;2023-06-10T00:54:40;71431.72;;;-143.21;83.02
6464;BME280;3265;42.694;23.282;2023-06-10T00:57:08;71433.72;;;-143.21;83.45
6464;BME280;3265;42.694;23.282;2023-06-10T00:59:35;71439.66;;;-143.21;83.63
6464;BME280;3265;42.694;23.282;2023-06-10T01:02:03;71461.47;;;-143.21;84.23
6464;BME280;3265;42.694;23.282;2023-06-10T01:04:30;71487.25;;;-143.21;85.55
6464;BME280;3265;42.694;23.282;2023-06-10T01:07:02;71499.13;;;-143.21;86.30
6464;BME280;3265;42.694;23.282;2023-06-10T01:09:40;71509.06;;;-143.21;86.97
6464;BME280;3265;42.694;23.282;2023-06-10T01:12:19;71513.03;;;-143.21;87.40
6464;BME280;3265;42.694;23.282;2023-06-10T01:14:50;71516.97;;;-143.21;87.70
6464;BME280;3265;42.694;23.282;2023-06-10T01:17:17;71507.06;;;-143.21;87.31
6464;BME280;3265;42.694;23.282;2023-06-10T01:19:53;71495.19;;;-143.21;86.57
6464;BME280;3265;42.694;23.282;2023-06-10T01:22:22;71499.13;;;-143.21;86.69
6464;BME280;3265;42.694;23.282;2023-06-10T01:24:49;71493.19;;;-143.21;86.59
6464;BME280;3265;42.694;23.282;2023-06-10T01:27:19;71485.25;;;-143.21;86.80
6464;BME280;3265;42.694;23.282;2023-06-10T01:29:51;71471.38;;;-143.21;86.48
6464;BME280;3265;42.694;23.282;2023-06-10T01:32:27;71473.38;;;-143.21;86.03
6464;BME280;3265;42.694;23.282;2023-06-10T01:34:56;71477.34;;;-143.21;86.13
6464;BME280;3265;42.694;23.282;2023-06-10T01:37:26;71481.28;;;-143.21;86.34
6464;BME280;3265;42.694;23.282;2023-06-10T01:39:55;71479.31;;;-143.21;86.73
6464;BME280;3265;42.694;23.282;2023-06-10T01:42:24;71487.25;;;-143.21;87.00
6464;BME280;3265;42.694;23.282;2023-06-10T01:44:52;71477.34;;;-143.21;86.83
6464;BME280;3265;42.694;23.282;2023-06-10T01:47:19;71469.41;;;-143.21;86.85
6464;BME280;3265;42.694;23.282;2023-06-10T01:49:46;71463.44;;;-143.21;86.90
6464;BME280;3265;42.694;23.282;2023-06-10T01:52:13;71463.44;;;-143.21;86.69
6464;BME280;3265;42.694;23.282;2023-06-10T01:54:41;71453.53;;;-143.21;85.88
6464;BME280;3265;42.694;23.282;2023-06-10T01:57:07;71449.56;;;-143.21;85.97
6464;BME280;3265;42.694;23.282;2023-06-10T01:59:35;71449.56;;;-143.21;85.93
6464;BME280;3265;42.694;23.282;2023-06-10T02:02:03;71445.59;;;-143.21;85.83
6464;BME280;3265;42.694;23.282;2023-06-10T02:04:30;71443.63;;;-143.21;85.87
6464;BME280;3265;42.694;23.282;2023-06-10T02:06:57;71447.59;;;-143.21;85.96
6464;BME280;3265;42.694;23.282;2023-06-10T02:09:24;71437.69;;;-143.21;85.72
6464;BME280;3265;42.694;23.282;2023-06-10T02:11:53;71433.72;;;-143.21;85.54
6464;BME280;3265;42.694;23.282;2023-06-10T02:14:19;71433.72;;;-143.21;85.14
6464;BME280;3265;42.694;23.282;2023-06-10T02:16:46;71435.69;;;-143.21;85.23
6464;BME280;3265;42.694;23.282;2023-06-10T02:19:13;71431.72;;;-143.21;85.02
6464;BME280;3265;42.694;23.282;2023-06-10T02:21:40;71431.72;;;-143.21;85.22
6464;BME280;3265;42.694;23.282;2023-06-10T02:24:07;71423.78;;;-143.21;85.23
6464;BME280;3265;42.694;23.282;2023-06-10T02:26:34;71419.84;;;-143.21;85.30
6464;BME280;3265;42.694;23.282;2023-06-10T02:29:02;71407.94;;;-143.21;85.35
6464;BME280;3265;42.694;23.282;2023-06-10T02:31:29;71392.06;;;-143.21;85.14
6464;BME280;3265;42.694;23.282;2023-06-10T02:33:56;71388.09;;;-143.21;85.01
6464;BME280;3265;42.694;23.282;2023-06-10T02:36:23;71390.09;;;-143.21;84.87
6464;BME280;3265;42.694;23.282;2023-06-10T02:38:49;71386.13;;;-143.21;84.37
6464;BME280;3265;42.694;23.282;2023-06-10T02:41:16;71374.22;;;-143.21;84.44
6464;BME280;3265;42.694;23.282;2023-06-10T02:43:43;71362.34;;;-143.21;83.51
6464;BME280;3265;42.694;23.282;2023-06-10T02:46:11;71360.34;;;-143.21;83.06
6464;BME280;3265;42.694;23.282;2023-06-10T02:48:41;71354.41;;;-143.21;82.51
6464;BME280;3265;42.694;23.282;2023-06-10T02:51:09;71350.44;;;-143.21;82.80
6464;BME280;3265;42.694;23.282;2023-06-10T02:53:36;71344.50;;;-143.21;82.71
6464;BME280;3265;42.694;23.282;2023-06-10T02:56:03;71340.53;;;-143.21;83.28
6464;BME280;3265;42.694;23.282;2023-06-10T02:58:30;71342.50;;;-143.21;81.84
6464;BME280;3265;42.694;23.282;2023-06-10T03:00:56;71340.53;;;-143.21;83.06
6464;BME280;3265;42.694;23.282;2023-06-10T03:03:25;71336.56;;;-143.21;84.94
6464;BME280;3265;42.694;23.282;2023-06-10T03:05:53;71340.53;;;-143.21;85.62
6464;BME280;3265;42.694;23.282;2023-06-10T03:08:19;71346.47;;;-143.21;86.30
6464;BME280;3265;42.694;23.282;2023-06-10T03:10:46;71358.38;;;-143.21;86.67
6464;BME280;3265;42.694;23.282;2023-06-10T03:13:13;71364.31;;;-143.21;87.30
6464;BME280;3265;42.694;23.282;2023-06-10T03:15:40;71350.44;;;-143.21;87.74
6464;BME280;3265;42.694;23.282;2023-06-10T03:18:07;71354.41;;;-143.21;87.58
6464;BME280;3265;42.694;23.282;2023-06-10T03:20:35;71372.25;;;-143.21;88.02
6464;BME280;3265;42.694;23.282;2023-06-10T03:23:04;71388.09;;;-143.21;88.16
6464;BME280;3265;42.694;23.282;2023-06-10T03:25:31;71405.94;;;-143.21;88.56
6464;BME280;3265;42.694;23.282;2023-06-10T03:27:58;71407.94;;;-143.21;88.52
6464;BME280;3265;42.694;23.282;2023-06-10T03:30:26;71415.88;;;-143.21;88.66
6464;BME280;3265;42.694;23.282;2023-06-10T03:32:53;71423.78;;;-143.21;88.92
6464;BME280;3265;42.694;23.282;2023-06-10T03:35:20;71415.88;;;-143.21;88.81
6464;BME280;3265;42.694;23.282;2023-06-10T03:37:49;71413.88;;;-143.21;89.07
6464;BME280;3265;42.694;23.282;2023-06-10T03:40:16;71405.94;;;-143.21;89.19
6464;BME280;3265;42.694;23.282;2023-06-10T03:42:42;71409.91;;;-143.21;89.32
6464;BME280;3265;42.694;23.282;2023-06-10T03:45:10;71413.88;;;-143.21;89.63
6464;BME280;3265;42.694;23.282;2023-06-10T03:47:38;71419.84;;;-143.21;90.20
6464;BME280;3265;42.694;23.282;2023-06-10T03:50:06;71411.91;;;-143.21;90.25
6464;BME280;3265;42.694;23.282;2023-06-10T03:52:34;71407.94;;;-143.21;90.15
6464;BME280;3265;42.694;23.282;2023-06-10T03:55:03;71402.00;;;-143.21;89.70
6464;BME280;3265;42.694;23.282;2023-06-10T03:57:30;71398.03;;;-143.21;89.76
6464;BME280;3265;42.694;23.282;2023-06-10T03:59:57;71400.00;;;-143.21;89.59
6464;BME280;3265;42.694;23.282;2023-06-10T04:02:24;71402.00;;;-143.21;89.64
6464;BME280;3265;42.694;23.282;2023-06-10T04:04:51;71396.03;;;-143.21;89.53
6464;BME280;3265;42.694;23.282;2023-06-10T04:07:18;71392.06;;;-143.21;89.34
6464;BME280;3265;42.694;23.282;2023-06-10T04:09:45;71396.03;;;-143.21;89.36
6464;BME280;3265;42.694;23.282;2023-06-10T04:12:14;71400.00;;;-143.21;89.24
6464;BME280;3265;42.694;23.282;2023-06-10T04:14:42;71407.94;;;-143.21;89.34
6464;BME280;3265;42.694;23.282;2023-06-10T04:17:12;71407.94;;;-143.21;89.58
6464;BME280;3265;42.694;23.282;2023-06-10T04:19:38;71407.94;;;-143.21;88.90
6464;BME280;3265;42.694;23.282;2023-06-10T04:22:05;71415.88;;;-143.21;88.50
6464;BME280;3265;42.694;23.282;2023-06-10T04:24:32;71403.97;;;-143.21;88.27
6464;BME280;3265;42.694;23.282;2023-06-10T04:26:59;71402.00;;;-143.21;88.41
6464;BME280;3265;42.694;23.282;2023-06-10T04:29:27;71400.00;;;-143.21;88.53
6464;BME280;3265;42.694;23.282;2023-06-10T04:31:54;71396.03;;;-143.21;88.93
6464;BME280;3265;42.694;23.282;2023-06-10T04:34:21;71396.03;;;-143.21;89.60
6464;BME280;3265;42.694;23.282;2023-06-10T04:36:48;71390.09;;;-143.21;88.94
6464;BME280;3265;42.694;23.282;2023-06-10T04:39:16;71390.09;;;-143.21;89.28
6464;BME280;3265;42.694;23.282;2023-06-10T04:41:43;71388.09;;;-143.21;88.58
6464;BME280;3265;42.694;23.282;2023-06-10T04:44:12;71388.09;;;-143.21;88.31
6464;BME280;3265;42.694;23.282;2023-06-10T04:46:40;71388.09;;;-143.21;88.62
6464;BME280;3265;42.694;23.282;2023-06-10T04:49:07;71390.09;;;-143.21;87.57
6464;BME280;3265;42.694;23.282;2023-06-10T04:51:34;71384.16;;;-143.21;87.22
6464;BME280;3265;42.694;23.282;2023-06-10T04:54:01;71390.09;;;-143.21;87.09
6464;BME280;3265;42.694;23.282;2023-06-10T04:56:29;71382.16;;;-143.21;87.22
6464;BME280;3265;42.694;23.282;2023-06-10T04:58:56;71384.16;;;-143.21;87.32
6464;BME280;3265;42.694;23.282;2023-06-10T05:01:23;71392.06;;;-143.21;87.55
6464;BME280;3265;42.694;23.282;2023-06-10T05:03:51;71398.03;;;-143.21;88.22
6464;BME280;3265;42.694;23.282;2023-06-10T05:06:18;71403.97;;;-143.21;88.38
6464;BME280;3265;42.694;23.282;2023-06-10T05:08:45;71400.00;;;-143.21;88.11
6464;BME280;3265;42.694;23.282;2023-06-10T05:11:12;71394.06;;;-143.21;87.90
6464;BME280;3265;42.694;23.282;2023-06-10T05:13:38;71394.06;;;-143.21;87.54
6464;BME280;3265;42.694;23.282;2023-06-10T05:16:06;71390.09;;;-143.21;87.35
6464;BME280;3265;42.694;23.282;2023-06-10T05:18:33;71392.06;;;-143.21;87.69
6464;BME280;3265;42.694;23.282;2023-06-10T05:21:02;71409.91;;;-143.21;87.79
6464;BME280;3265;42.694;23.282;2023-06-10T05:23:29;71409.91;;;-143.21;88.15
6464;BME280;3265;42.694;23.282;2023-06-10T05:25:56;71415.88;;;-143.21;88.40
6464;BME280;3265;42.694;23.282;2023-06-10T05:28:23;71407.94;;;-143.21;88.65
6464;BME280;3265;42.694;23.282;2023-06-10T05:30:51;71409.91;;;-143.21;88.07
6464;BME280;3265;42.694;23.282;2023-06-10T05:33:17;71405.94;;;-143.21;87.22
6464;BME280;3265;42.694;23.282;2023-06-10T05:35:47;71403.97;;;-143.21;87.44
6464;BME280;3265;42.694;23.282;2023-06-10T05:38:25;71407.94;;;-143.21;87.23
6464;BME280;3265;42.694;23.282;2023-06-10T05:40:51;71411.91;;;-143.21;86.96
6464;BME280;3265;42.694;23.282;2023-06-10T05:43:18;71415.88;;;-143.21;87.68
6464;BME280;3265;42.694;23.282;2023-06-10T05:45:54;71403.97;;;-143.21;87.43
6464;BME280;3265;42.694;23.282;2023-06-10T05:48:21;71413.88;;;-143.21;85.33
6464;BME280;3265;42.694;23.282;2023-06-10T05:50:48;71415.88;;;-143.21;85.36
6464;BME280;3265;42.694;23.282;2023-06-10T05:53:15;71417.84;;;-143.21;86.12
6464;BME280;3265;42.694;23.282;2023-06-10T05:55:44;71415.88;;;-143.21;86.66
6464;BME280;3265;42.694;23.282;2023-06-10T05:58:12;71392.06;;;-143.21;87.64
6464;BME280;3265;42.694;23.282;2023-06-10T06:00:39;71390.09;;;-143.21;87.01
6464;BME280;3265;42.694;23.282;2023-06-10T06:03:06;71374.22;;;-143.21;87.17
6464;BME280;3265;42.694;23.282;2023-06-10T06:05:34;71360.34;;;-143.21;86.48
6464;BME280;3265;42.694;23.282;2023-06-10T06:08:03;71352.44;;;-143.21;83.85
6464;BME280;3265;42.694;23.282;2023-06-10T06:10:30;71364.31;;;-143.21;84.41
6464;BME280;3265;42.694;23.282;2023-06-10T06:12:58;71380.19;;;-143.21;85.35
6464;BME280;3265;42.694;23.282;2023-06-10T06:15:25;71380.19;;;-143.21;85.78
6464;BME280;3265;42.694;23.282;2023-06-10T06:17:52;71378.19;;;-143.21;85.72
6464;BME280;3265;42.694;23.282;2023-06-10T06:20:19;71384.16;;;-143.21;85.80
6464;BME280;3265;42.694;23.282;2023-06-10T06:22:46;71378.19;;;-143.21;85.87
6464;BME280;3265;42.694;23.282;2023-06-10T06:25:13;71366.31;;;-143.21;86.25
6464;BME280;3265;42.694;23.282;2023-06-10T06:27:40;71358.38;;;-143.21;85.62
6464;BME280;3265;42.694;23.282;2023-06-10T06:30:09;71346.47;;;-143.21;85.17
6464;BME280;3265;42.694;23.282;2023-06-10T06:32:36;71328.63;;;-143.21;84.85
6464;BME280;3265;42.694;23.282;2023-06-10T06:35:04;71318.72;;;-143.21;84.51
6464;BME280;3265;42.694;23.282;2023-06-10T06:37:33;71336.56;;;-143.21;84.25
6464;BME280;3265;42.694;23.282;2023-06-10T06:40:00;71318.72;;;-143.21;84.57
6464;BME280;3265;42.694;23.282;2023-06-10T06:42:28;71304.84;;;-143.21;84.02
6464;BME280;3265;42.694;23.282;2023-06-10T06:44:55;71296.91;;;-143.21;83.39
6464;BME280;3265;42.694;23.282;2023-06-10T06:47:23;71292.94;;;-143.21;82.37
6464;BME280;3265;42.694;23.282;2023-06-10T06:49:51;71287.00;;;-143.21;81.75
6464;BME280;3265;42.694;23.282;2023-06-10T06:52:18;71277.09;;;-143.21;81.51
6464;BME280;3265;42.694;23.282;2023-06-10T06:54:45;71273.13;;;-143.21;80.60
6464;BME280;3265;42.694;23.282;2023-06-10T06:57:12;71263.22;;;-143.21;80.63
6464;BME280;3265;42.694;23.282;2023-06-10T06:59:39;71253.28;;;-143.21;80.20
6464;BME280;3265;42.694;23.282;2023-06-10T07:02:06;71241.41;;;-143.21;79.80
6464;BME280;3265;42.694;23.282;2023-06-10T07:04:34;71235.44;;;-143.21;79.37
6464;BME280;3265;42.694;23.282;2023-06-10T07:07:01;71241.41;;;-143.21;78.98
6464;BME280;3265;42.694;23.282;2023-06-10T07:09:28;71261.22;;;-143.21;79.70
6464;BME280;3265;42.694;23.282;2023-06-10T07:11:55;71261.22;;;-143.21;80.29
6464;BME280;3265;42.694;23.282;2023-06-10T07:14:22;71239.41;;;-143.21;79.74
6464;BME280;3265;42.694;23.282;2023-06-10T07:16:48;71217.59;;;-143.21;79.52
6464;BME280;3265;42.694;23.282;2023-06-10T07:19:15;71221.56;;;-143.21;78.62
6464;BME280;3265;42.694;23.282;2023-06-10T07:21:44;71221.56;;;-143.21;79.39
6464;BME280;3265;42.694;23.282;2023-06-10T07:24:10;71197.78;;;-143.21;79.40
6464;BME280;3265;42.694;23.282;2023-06-10T07:26:37;71181.94;;;-143.21;77.69
6464;BME280;3265;42.694;23.282;2023-06-10T07:29:04;71174.00;;;-143.21;71.38
6464;BME280;3265;42.694;23.282;2023-06-10T07:31:31;71154.16;;;-143.21;71.44
6464;BME280;3265;42.694;23.282;2023-06-10T07:33:57;71136.31;;;-143.21;69.41
6464;BME280;3265;42.694;23.282;2023-06-10T07:36:24;71138.31;;;-143.21;70.13
6464;BME280;3265;42.694;23.282;2023-06-10T07:38:54;71144.25;;;-143.21;70.31
6464;BME280;3265;42.694;23.282;2023-06-10T07:41:22;71144.25;;;-143.21;69.98
6464;BME280;3265;42.694;23.282;2023-06-10T07:43:50;71120.47;;;-143.21;69.40
6464;BME280;3265;42.694;23.282;2023-06-10T07:46:20;71118.50;;;-143.21;67.61
6464;BME280;3265;42.694;23.282;2023-06-10T07:48:46;71114.53;;;-143.21;67.67
6464;BME280;3265;42.694;23.282;2023-06-10T07:51:14;71096.69;;;-143.21;66.92
6464;BME280;3265;42.694;23.282;2023-06-10T07:53:41;71086.75;;;-143.21;66.72
6464;BME280;3265;42.694;23.282;2023-06-10T07:56:09;71080.81;;;-143.21;66.74
6464;BME280;3265;42.694;23.282;2023-06-10T07:58:36;71076.84;;;-143.21;67.05
6464;BME280;3265;42.694;23.282;2023-06-10T08:01:03;71068.94;;;-143.21;67.74
6464;BME280;3265;42.694;23.282;2023-06-10T08:03:30;71062.97;;;-143.21;67.40
6464;BME280;3265;42.694;23.282;2023-06-10T08:05:57;71062.97;;;-143.21;66.88
6464;BME280;3265;42.694;23.282;2023-06-10T08:08:23;71066.94;;;-143.21;66.93
6464;BME280;3265;42.694;23.282;2023-06-10T08:10:50;71059.00;;;-143.21;67.60
6464;BME280;3265;42.694;23.282;2023-06-10T08:13:18;71053.06;;;-143.21;68.01
6464;BME280;3265;42.694;23.282;2023-06-10T08:15:45;71047.13;;;-143.21;67.04
6464;BME280;3265;42.694;23.282;2023-06-10T08:18:13;71043.16;;;-143.21;64.99
6464;BME280;3265;42.694;23.282;2023-06-10T08:20:40;71029.28;;;-143.21;63.82
6464;BME280;3265;42.694;23.282;2023-06-10T08:23:06;71027.28;;;-143.21;63.79
6464;BME280;3265;42.694;23.282;2023-06-10T08:25:33;71017.38;;;-143.21;63.96
6464;BME280;3265;42.694;23.282;2023-06-10T08:28:00;71015.41;;;-143.21;64.56
6464;BME280;3265;42.694;23.282;2023-06-10T08:30:28;71023.34;;;-143.21;63.49
6464;BME280;3265;42.694;23.282;2023-06-10T08:32:55;71017.38;;;-143.21;63.26
6464;BME280;3265;42.694;23.282;2023-06-10T08:35:22;71007.47;;;-143.21;62.65
6464;BME280;3265;42.694;23.282;2023-06-10T08:37:49;71003.50;;;-143.21;62.11
6464;BME280;3265;42.694;23.282;2023-06-10T08:40:16;70991.63;;;-143.21;61.70
6464;BME280;3265;42.694;23.282;2023-06-10T08:42:46;70989.63;;;-143.21;62.33
6464;BME280;3265;42.694;23.282;2023-06-10T08:45:17;70987.66;;;-143.21;62.31
6464;BME280;3265;42.694;23.282;2023-06-10T08:47:46;70983.69;;;-143.21;60.55
6464;BME280;3265;42.694;23.282;2023-06-10T08:50:17;70977.72;;;-143.21;60.51
6464;BME280;3265;42.694;23.282;2023-06-10T08:52:48;70959.91;;;-143.21;60.14
6464;BME280;3265;42.694;23.282;2023-06-10T08:55:21;70949.97;;;-143.21;60.81
6464;BME280;3265;42.694;23.282;2023-06-10T08:57:51;70930.16;;;-143.21;59.84
6464;BME280;3265;42.694;23.282;2023-06-10T09:00:19;70918.25;;;-143.21;59.24
6464;BME280;3265;42.694;23.282;2023-06-10T09:02:47;70904.38;;;-143.21;59.19
6464;BME280;3265;42.694;23.282;2023-06-10T09:05:14;70892.50;;;-143.21;58.78
6464;BME280;3265;42.694;23.282;2023-06-10T09:07:41;70876.63;;;-143.21;58.86
6464;BME280;3265;42.694;23.282;2023-06-10T09:10:10;70876.63;;;-143.21;57.95
6464;BME280;3265;42.694;23.282;2023-06-10T09:12:37;70892.50;;;-143.21;58.84
6464;BME280;3265;42.694;23.282;2023-06-10T09:15:05;70878.63;;;-143.21;58.83
6464;BME280;3265;42.694;23.282;2023-06-10T09:17:32;70890.50;;;-143.21;59.36
6464;BME280;3265;42.694;23.282;2023-06-10T09:20:03;70884.56;;;-143.21;59.51
6464;BME280;3265;42.694;23.282;2023-06-10T09:22:30;70862.75;;;-143.21;58.63
6464;BME280;3265;42.694;23.282;2023-06-10T09:25:04;70838.97;;;-143.21;59.09
6464;BME280;3265;42.694;23.282;2023-06-10T09:27:31;70817.16;;;-143.21;58.56
6464;BME280;3265;42.694;23.282;2023-06-10T09:29:58;70811.22;;;-143.21;57.22
6464;BME280;3265;42.694;23.282;2023-06-10T09:32:26;70807.25;;;-143.21;57.41
6464;BME280;3265;42.694;23.282;2023-06-10T09:34:53;70807.25;;;-143.21;57.98
6464;BME280;3265;42.694;23.282;2023-06-10T09:37:21;70805.28;;;-143.21;56.95
6464;BME280;3265;42.694;23.282;2023-06-10T09:40:05;70799.31;;;-143.21;56.46
6464;BME280;3265;42.694;23.282;2023-06-10T09:42:33;70797.34;;;-143.21;55.38
6464;BME280;3265;42.694;23.282;2023-06-10T09:45:01;70785.44;;;-143.21;56.66
6464;BME280;3265;42.694;23.282;2023-06-10T09:47:28;70767.63;;;-143.21;56.77
6464;BME280;3265;42.694;23.282;2023-06-10T09:49:55;70753.72;;;-143.21;56.29
6464;BME280;3265;42.694;23.282;2023-06-10T09:52:24;70733.91;;;-143.21;55.69
6464;BME280;3265;42.694;23.282;2023-06-10T09:54:51;70710.13;;;-143.21;54.98
6464;BME280;3265;42.694;23.282;2023-06-10T09:57:18;70694.25;;;-143.21;54.90
6464;BME280;3265;42.694;23.282;2023-06-10T09:59:46;70674.44;;;-143.21;54.19
6464;BME280;3265;42.694;23.282;2023-06-10T10:02:14;70668.50;;;-143.21;51.88
6464;BME280;3265;42.694;23.282;2023-06-10T10:04:41;70652.66;;;-143.21;52.53
6464;BME280;3265;42.694;23.282;2023-06-10T10:07:08;70628.84;;;-143.21;54.22
6464;BME280;3265;42.694;23.282;2023-06-10T10:09:37;70599.13;;;-143.21;52.51
6464;BME280;3265;42.694;23.282;2023-06-10T10:12:08;70585.25;;;-143.21;52.58
6464;BME280;3265;42.694;23.282;2023-06-10T10:14:36;70563.44;;;-143.21;51.84
6464;BME280;3265;42.694;23.282;2023-06-10T10:17:04;70553.53;;;-143.21;51.45
6464;BME280;3265;42.694;23.282;2023-06-10T10:19:36;70531.72;;;-143.21;50.64
6464;BME280;3265;42.694;23.282;2023-06-10T10:22:07;70498.03;;;-143.21;51.51
6464;BME280;3265;42.694;23.282;2023-06-10T10:24:41;70464.34;;;-143.21;50.49
6464;BME280;3265;42.694;23.282;2023-06-10T10:27:15;70436.59;;;-143.21;49.59
6464;BME280;3265;42.694;23.282;2023-06-10T10:29:46;70422.72;;;-143.21;49.27
6464;BME280;3265;42.694;23.282;2023-06-10T10:32:14;70410.81;;;-143.21;48.68
6464;BME280;3265;42.694;23.282;2023-06-10T10:34:49;70400.91;;;-143.21;48.36
6464;BME280;3265;42.694;23.282;2023-06-10T10:37:17;70392.97;;;-143.21;47.69
6464;BME280;3265;42.694;23.282;2023-06-10T10:39:46;70381.09;;;-143.21;47.63
6464;BME280;3265;42.694;23.282;2023-06-10T10:42:13;70357.31;;;-143.21;48.23
6464;BME280;3265;42.694;23.282;2023-06-10T10:44:41;70335.50;;;-143.21;46.55
6464;BME280;3265;42.694;23.282;2023-06-10T10:47:08;70323.63;;;-143.21;47.00
6464;BME280;3265;42.694;23.282;2023-06-10T10:49:37;70307.75;;;-143.21;46.28
6464;BME280;3265;42.694;23.282;2023-06-10T10:52:04;70303.78;;;-143.21;46.05
6464;BME280;3265;42.694;23.282;2023-06-10T10:54:35;70305.78;;;-143.21;45.43
6464;BME280;3265;42.694;23.282;2023-06-10T10:57:18;70276.03;;;-143.21;45.01
6464;BME280;3265;42.694;23.282;2023-06-10T10:59:53;70262.19;;;-143.21;45.79
6464;BME280;3265;42.694;23.282;2023-06-10T11:02:40;70250.28;;;-143.21;45.30
6464;BME280;3265;42.694;23.282;2023-06-10T11:05:09;70242.34;;;-143.21;42.70
6464;BME280;3265;42.694;23.282;2023-06-10T11:07:37;70238.38;;;-143.21;43.30
6464;BME280;3265;42.694;23.282;2023-06-10T11:10:08;70218.56;;;-143.21;42.88
6464;BME280;3265;42.694;23.282;2023-06-10T11:12:57;70214.59;;;-143.21;42.20
6464;BME280;3265;42.694;23.282;2023-06-10T11:15:26;70192.81;;;-143.21;41.47
6464;BME280;3265;42.694;23.282;2023-06-10T11:18:18;70184.88;;;-143.21;41.78
6464;BME280;3265;42.694;23.282;2023-06-10T11:20:57;70186.84;;;-143.21;42.64
6464;BME280;3265;42.694;23.282;2023-06-10T11:23:35;70178.94;;;-143.21;43.36
6464;BME280;3265;42.694;23.282;2023-06-10T11:26:16;70208.66;;;-143.21;44.19
6464;BME280;3265;42.694;23.282;2023-06-10T11:29:08;70232.44;;;-143.21;44.37
6464;BME280;3265;42.694;23.282;2023-06-10T11:31:43;70232.44;;;-143.21;45.06
6464;BME280;3265;42.694;23.282;2023-06-10T11:34:10;70236.41;;;-143.21;45.31
6464;BME280;3265;42.694;23.282;2023-06-10T11:36:39;70262.19;;;-143.21;45.95
6464;BME280;3265;42.694;23.282;2023-06-10T11:39:11;70264.16;;;-143.21;45.79
6464;BME280;3265;42.694;23.282;2023-06-10T11:41:39;70266.13;;;-143.21;46.99
6464;BME280;3265;42.694;23.282;2023-06-10T11:44:12;70282.00;;;-143.21;46.73
6464;BME280;3265;42.694;23.282;2023-06-10T11:46:40;70293.88;;;-143.21;46.01
6464;BME280;3265;42.694;23.282;2023-06-10T11:49:11;70262.19;;;-143.21;46.33
6464;BME280;3265;42.694;23.282;2023-06-10T11:51:39;70234.44;;;-143.21;45.69
6464;BME280;3265;42.694;23.282;2023-06-10T11:54:09;70196.78;;;-143.21;46.23
6464;BME280;3265;42.694;23.282;2023-06-10T11:56:36;70180.91;;;-143.21;44.61
6464;BME280;3265;42.694;23.282;2023-06-10T11:59:04;70165.06;;;-143.21;43.33
6464;BME280;3265;42.694;23.282;2023-06-10T12:01:35;70143.25;;;-143.21;43.45
6464;BME280;3265;42.694;23.282;2023-06-10T12:04:04;70137.31;;;-143.21;42.81
6464;BME280;3265;42.694;23.282;2023-06-10T12:06:38;70135.31;;;-143.21;42.63
6464;BME280;3265;42.694;23.282;2023-06-10T12:09:06;70147.22;;;-143.21;40.83
6464;BME280;3265;42.694;23.282;2023-06-10T12:11:33;70155.16;;;-143.21;40.56
6464;BME280;3265;42.694;23.282;2023-06-10T12:14:00;70161.09;;;-143.21;41.92
6464;BME280;3265;42.694;23.282;2023-06-10T12:16:28;70178.94;;;-143.21;42.93
6464;BME280;3265;42.694;23.282;2023-06-10T12:19:02;70186.84;;;-143.21;42.43
6464;BME280;3265;42.694;23.282;2023-06-10T12:21:30;70210.63;;;-143.21;40.13
6464;BME280;3265;42.694;23.282;2023-06-10T12:24:05;70256.22;;;-143.21;38.63
6464;BME280;3265;42.694;23.282;2023-06-10T12:26:36;70270.09;;;-143.21;40.21
6464;BME280;3265;42.694;23.282;2023-06-10T12:29:18;70270.09;;;-143.21;40.50
6464;BME280;3265;42.694;23.282;2023-06-10T12:31:53;70280.00;;;-143.21;41.10
6464;BME280;3265;42.694;23.282;2023-06-10T12:34:28;70295.88;;;-143.21;39.54
6464;BME280;3265;42.694;23.282;2023-06-10T12:36:55;70297.84;;;-143.21;40.43
6464;BME280;3265;42.694;23.282;2023-06-10T12:39:21;70307.75;;;-143.21;39.31
6464;BME280;3265;42.694;23.282;2023-06-10T12:41:49;70317.66;;;-143.21;39.13
6464;BME280;3265;42.694;23.282;2023-06-10T12:44:16;70331.53;;;-143.21;39.76
6464;BME280;3265;42.694;23.282;2023-06-10T12:46:43;70333.53;;;-143.21;40.04
6464;BME280;3265;42.694;23.282;2023-06-10T12:49:19;70333.53;;;-143.21;39.42
6464;BME280;3265;42.694;23.282;2023-06-10T12:51:47;70325.59;;;-143.21;40.42
6464;BME280;3265;42.694;23.282;2023-06-10T12:54:14;70337.50;;;-143.21;40.97
6464;BME280;3265;42.694;23.282;2023-06-10T12:56:41;70341.44;;;-143.21;41.17
6464;BME280;3265;42.694;23.282;2023-06-10T12:59:08;70353.34;;;-143.21;41.53